sensor_id;sensor_type;location;lat;lon;timestamp;temperature;humidity
37285;DHT22;23172;53.550;9.964;2023-04-24T00:02:44;15.70;90.90
37285;DHT22;23172;53.550;9.964;2023-04-24T00:07:49;15.70;91.00
37285;DHT22;23172;53.550;9.964;2023-04-24T00:12:53;15.70;91.30
37285;DHT22;23172;53.550;9.964;2023-04-24T00:17:55;15.60;91.40
37285;DHT22;23172;53.550;9.964;2023-04-24T00:22:58;15.60;91.70
37285;DHT22;23172;53.550;9.964;2023-04-24T00:28:00;15.60;92.00
37285;DHT22;23172;53.550;9.964;2023-04-24T00:33:02;15.50;92.00
37285;DHT22;23172;53.550;9.964;2023-04-24T00:38:05;15.50;92.20
37285;DHT22;23172;53.550;9.964;2023-04-24T00:43:07;15.40;92.40
37285;DHT22;23172;53.550;9.964;2023-04-24T00:48:09;15.40;92.50
37285;DHT22;23172;53.550;9.964;2023-04-24T00:53:14;15.40;92.60
37285;DHT22;23172;53.550;9.964;2023-04-24T00:58:16;15.30;92.70
37285;DHT22;23172;53.550;9.964;2023-04-24T01:03:18;15.20;92.90
37285;DHT22;23172;53.550;9.964;2023-04-24T01:08:23;15.20;93.00
37285;DHT22;23172;53.550;9.964;2023-04-24T01:13:26;15.10;93.10
37285;DHT22;23172;53.550;9.964;2023-04-24T01:18:28;15.10;93.30
37285;DHT22;23172;53.550;9.964;2023-04-24T01:23:31;14.90;93.40
37285;DHT22;23172;53.550;9.964;2023-04-24T01:28:33;14.90;93.50
37285;DHT22;23172;53.550;9.964;2023-04-24T02:44:17;14.90;93.40
37285;DHT22;23172;53.550;9.964;2023-04-24T02:49:18;14.60;93.20
37285;DHT22;23172;53.550;9.964;2023-04-24T02:54:22;14.50;93.00
37285;DHT22;23172;53.550;9.964;2023-04-24T02:59:24;14.40;93.00
37285;DHT22;23172;53.550;9.964;2023-04-24T03:04:27;14.40;93.00
37285;DHT22;23172;53.550;9.964;2023-04-24T03:09:30;14.30;93.10
37285;DHT22;23172;53.550;9.964;2023-04-24T03:14:32;14.30;93.10
37285;DHT22;23172;53.550;9.964;2023-04-24T03:19:36;14.30;93.00
37285;DHT22;23172;53.550;9.964;2023-04-24T03:24:39;14.20;92.80
37285;DHT22;23172;53.550;9.964;2023-04-24T03:29:41;14.30;93.20
37285;DHT22;23172;53.550;9.964;2023-04-24T03:34:42;14.20;92.80
37285;DHT22;23172;53.550;9.964;2023-04-24T03:39:46;14.10;92.80
37285;DHT22;23172;53.550;9.964;2023-04-24T03:44:47;14.10;92.80
37285;DHT22;23172;53.550;9.964;2023-04-24T03:49:49;14.10;92.70
37285;DHT22;23172;53.550;9.964;2023-04-24T03:54:53;14.00;92.60
37285;DHT22;23172;53.550;9.964;2023-04-24T03:59:55;14.00;92.40
37285;DHT22;23172;53.550;9.964;2023-04-24T04:04:57;14.00;92.10
37285;DHT22;23172;53.550;9.964;2023-04-24T04:10:01;13.90;91.90
37285;DHT22;23172;53.550;9.964;2023-04-24T04:15:03;13.90;91.60
37285;DHT22;23172;53.550;9.964;2023-04-24T04:20:07;13.90;91.20
37285;DHT22;23172;53.550;9.964;2023-04-24T04:25:11;13.90;90.90
37285;DHT22;23172;53.550;9.964;2023-04-24T04:30:14;13.80;90.40
37285;DHT22;23172;53.550;9.964;2023-04-24T04:35:16;13.70;90.20
37285;DHT22;23172;53.550;9.964;2023-04-24T04:40:20;13.80;90.20
37285;DHT22;23172;53.550;9.964;2023-04-24T04:45:22;13.70;90.30
37285;DHT22;23172;53.550;9.964;2023-04-24T04:50:24;13.70;90.00
37285;DHT22;23172;53.550;9.964;2023-04-24T04:55:28;13.90;89.30
37285;DHT22;23172;53.550;9.964;2023-04-24T05:00:30;14.00;88.80
37285;DHT22;23172;53.550;9.964;2023-04-24T05:05:36;14.00;87.80
37285;DHT22;23172;53.550;9.964;2023-04-24T05:10:42;13.90;87.20
37285;DHT22;23172;53.550;9.964;2023-04-24T05:15:44;13.90;87.10
37285;DHT22;23172;53.550;9.964;2023-04-24T05:20:45;13.90;86.80
37285;DHT22;23172;53.550;9.964;2023-04-24T05:25:49;14.00;86.30
37285;DHT22;23172;53.550;9.964;2023-04-24T05:30:51;13.90;86.00
37285;DHT22;23172;53.550;9.964;2023-04-24T05:35:52;13.90;86.20
37285;DHT22;23172;53.550;9.964;2023-04-24T05:40:55;13.90;85.90
37285;DHT22;23172;53.550;9.964;2023-04-24T05:45:57;13.90;85.90
37285;DHT22;23172;53.550;9.964;2023-04-24T05:50:59;13.90;85.90
37285;DHT22;23172;53.550;9.964;2023-04-24T05:56:02;13.90;85.80
37285;DHT22;23172;53.550;9.964;2023-04-24T06:01:04;14.00;85.50
37285;DHT22;23172;53.550;9.964;2023-04-24T06:06:06;14.10;85.30
37285;DHT22;23172;53.550;9.964;2023-04-24T06:11:10;14.30;84.60
37285;DHT22;23172;53.550;9.964;2023-04-24T06:16:12;14.40;84.20
37285;DHT22;23172;53.550;9.964;2023-04-24T06:21:14;14.50;83.90
37285;DHT22;23172;53.550;9.964;2023-04-24T06:26:17;14.60;83.40
37285;DHT22;23172;53.550;9.964;2023-04-24T06:31:19;14.80;82.30
37285;DHT22;23172;53.550;9.964;2023-04-24T06:36:21;15.00;81.30
37285;DHT22;23172;53.550;9.964;2023-04-24T06:41:24;15.10;80.20
37285;DHT22;23172;53.550;9.964;2023-04-24T06:46:28;15.30;79.80
37285;DHT22;23172;53.550;9.964;2023-04-24T06:51:30;15.40;78.50
37285;DHT22;23172;53.550;9.964;2023-04-24T06:56:34;15.40;77.80
37285;DHT22;23172;53.550;9.964;2023-04-24T07:01:36;15.70;77.10
37285;DHT22;23172;53.550;9.964;2023-04-24T07:06:38;15.90;75.40
37285;DHT22;23172;53.550;9.964;2023-04-24T07:11:42;16.40;74.40
37285;DHT22;23172;53.550;9.964;2023-04-24T07:16:45;17.10;72.30
37285;DHT22;23172;53.550;9.964;2023-04-24T07:21:47;17.20;69.20
37285;DHT22;23172;53.550;9.964;2023-04-24T07:26:51;17.00;68.80
37285;DHT22;23172;53.550;9.964;2023-04-24T07:31:53;17.10;68.60
37285;DHT22;23172;53.550;9.964;2023-04-24T07:36:55;17.90;66.00
37285;DHT22;23172;53.550;9.964;2023-04-24T07:41:58;17.80;64.60
37285;DHT22;23172;53.550;9.964;2023-04-24T07:47:02;17.70;64.20
37285;DHT22;23172;53.550;9.964;2023-04-24T07:52:04;17.60;63.60
37285;DHT22;23172;53.550;9.964;2023-04-24T07:57:07;17.70;63.50
37285;DHT22;23172;53.550;9.964;2023-04-24T08:02:09;18.00;63.20
37285;DHT22;23172;53.550;9.964;2023-04-24T08:07:11;18.60;61.60
37285;DHT22;23172;53.550;9.964;2023-04-24T08:12:15;19.30;60.00
37285;DHT22;23172;53.550;9.964;2023-04-24T08:17:17;20.00;58.00
37285;DHT22;23172;53.550;9.964;2023-04-24T08:22:19;20.40;56.50
37285;DHT22;23172;53.550;9.964;2023-04-24T08:27:22;20.70;55.10
37285;DHT22;23172;53.550;9.964;2023-04-24T08:32:24;20.40;54.30
37285;DHT22;23172;53.550;9.964;2023-04-24T08:37:28;19.90;53.70
37285;DHT22;23172;53.550;9.964;2023-04-24T08:42:33;19.40;54.20
37285;DHT22;23172;53.550;9.964;2023-04-24T08:47:37;19.00;53.90
37285;DHT22;23172;53.550;9.964;2023-04-24T08:52:41;18.50;54.70
37285;DHT22;23172;53.550;9.964;2023-04-24T08:57:45;18.10;55.40
37285;DHT22;23172;53.550;9.964;2023-04-24T09:02:51;17.90;56.20
37285;DHT22;23172;53.550;9.964;2023-04-24T09:07:55;19.50;55.30
37285;DHT22;23172;53.550;9.964;2023-04-24T09:12:59;20.50;54.00
37285;DHT22;23172;53.550;9.964;2023-04-24T09:18:02;22.90;51.70
37285;DHT22;23172;53.550;9.964;2023-04-24T09:23:04;22.20;48.90
37285;DHT22;23172;53.550;9.964;2023-04-24T09:28:07;21.10;49.90
37285;DHT22;23172;53.550;9.964;2023-04-24T09:33:10;20.40;50.80
37285;DHT22;23172;53.550;9.964;2023-04-24T09:38:12;19.90;51.30
37285;DHT22;23172;53.550;9.964;2023-04-24T09:43:15;19.00;52.60
37285;DHT22;23172;53.550;9.964;2023-04-24T09:48:17;18.60;53.30
37285;DHT22;23172;53.550;9.964;2023-04-24T09:53:24;18.30;53.80
37285;DHT22;23172;53.550;9.964;2023-04-24T09:58:28;18.00;54.50
37285;DHT22;23172;53.550;9.964;2023-04-24T10:03:31;17.70;55.20
37285;DHT22;23172;53.550;9.964;2023-04-24T10:08:34;17.40;56.00
37285;DHT22;23172;53.550;9.964;2023-04-24T10:13:37;17.30;56.50
37285;DHT22;23172;53.550;9.964;2023-04-24T10:18:40;17.20;57.10
37285;DHT22;23172;53.550;9.964;2023-04-24T10:23:43;17.40;57.90
37285;DHT22;23172;53.550;9.964;2023-04-24T10:28:48;17.50;57.20
37285;DHT22;23172;53.550;9.964;2023-04-24T10:33:50;17.50;56.90
37285;DHT22;23172;53.550;9.964;2023-04-24T10:38:55;17.40;57.00
37285;DHT22;23172;53.550;9.964;2023-04-24T10:44:09;17.00;57.90
37285;DHT22;23172;53.550;9.964;2023-04-24T10:49:12;17.00;58.40
37285;DHT22;23172;53.550;9.964;2023-04-24T10:54:24;16.90;58.60
37285;DHT22;23172;53.550;9.964;2023-04-24T10:59:28;17.00;58.90
37285;DHT22;23172;53.550;9.964;2023-04-24T11:04:37;17.50;58.40
37285;DHT22;23172;53.550;9.964;2023-04-24T11:09:42;17.50;57.50
37285;DHT22;23172;53.550;9.964;2023-04-24T11:15:10;17.50;57.40
37285;DHT22;23172;53.550;9.964;2023-04-24T11:20:17;17.70;56.40
37285;DHT22;23172;53.550;9.964;2023-04-24T11:25:19;17.80;56.20
37285;DHT22;23172;53.550;9.964;2023-04-24T11:30:29;18.00;55.60
37285;DHT22;23172;53.550;9.964;2023-04-24T11:35:35;18.40;54.70
37285;DHT22;23172;53.550;9.964;2023-04-24T11:40:40;18.40;54.30
37285;DHT22;23172;53.550;9.964;2023-04-24T11:45:48;18.50;54.10
37285;DHT22;23172;53.550;9.964;2023-04-24T11:50:50;18.10;54.40
37285;DHT22;23172;53.550;9.964;2023-04-24T11:55:52;17.80;55.40
37285;DHT22;23172;53.550;9.964;2023-04-24T12:00:59;17.50;54.90
37285;DHT22;23172;53.550;9.964;2023-04-24T12:06:05;17.40;56.00
37285;DHT22;23172;53.550;9.964;2023-04-24T12:11:08;17.70;55.10
37285;DHT22;23172;53.550;9.964;2023-04-24T12:16:11;17.60;54.90
37285;DHT22;23172;53.550;9.964;2023-04-24T12:21:18;17.60;54.50
37285;DHT22;23172;53.550;9.964;2023-04-24T12:26:21;17.50;54.60
37285;DHT22;23172;53.550;9.964;2023-04-24T12:31:25;17.30;54.80
37285;DHT22;23172;53.550;9.964;2023-04-24T12:36:27;17.30;55.10
37285;DHT22;23172;53.550;9.964;2023-04-24T12:41:30;17.20;55.40
37285;DHT22;23172;53.550;9.964;2023-04-24T12:46:34;17.20;55.60
37285;DHT22;23172;53.550;9.964;2023-04-24T12:51:36;17.00;55.90
37285;DHT22;23172;53.550;9.964;2023-04-24T12:56:38;16.90;56.40
37285;DHT22;23172;53.550;9.964;2023-04-24T13:01:41;16.60;57.10
37285;DHT22;23172;53.550;9.964;2023-04-24T13:06:43;16.40;57.90
37285;DHT22;23172;53.550;9.964;2023-04-24T13:11:47;16.20;58.40
37285;DHT22;23172;53.550;9.964;2023-04-24T13:16:50;16.10;58.70
37285;DHT22;23172;53.550;9.964;2023-04-24T13:21:53;15.90;60.60
37285;DHT22;23172;53.550;9.964;2023-04-24T13:26:55;15.90;60.80
37285;DHT22;23172;53.550;9.964;2023-04-24T13:31:59;15.90;61.00
37285;DHT22;23172;53.550;9.964;2023-04-24T13:37:02;15.90;60.70
37285;DHT22;23172;53.550;9.964;2023-04-24T13:42:04;15.90;61.00
37285;DHT22;23172;53.550;9.964;2023-04-24T13:47:07;16.00;61.20
37285;DHT22;23172;53.550;9.964;2023-04-24T13:52:09;15.90;61.40
37285;DHT22;23172;53.550;9.964;2023-04-24T13:57:11;15.90;61.30
37285;DHT22;23172;53.550;9.964;2023-04-24T14:02:15;15.80;61.70
37285;DHT22;23172;53.550;9.964;2023-04-24T14:07:17;15.60;63.10
37285;DHT22;23172;53.550;9.964;2023-04-24T14:12:19;15.70;62.20
37285;DHT22;23172;53.550;9.964;2023-04-24T14:17:23;15.90;61.80
37285;DHT22;23172;53.550;9.964;2023-04-24T14:22:24;16.00;61.20
37285;DHT22;23172;53.550;9.964;2023-04-24T14:27:26;16.00;60.90
37285;DHT22;23172;53.550;9.964;2023-04-24T14:32:30;15.70;61.60
37285;DHT22;23172;53.550;9.964;2023-04-24T14:37:31;15.70;62.10
37285;DHT22;23172;53.550;9.964;2023-04-24T14:42:34;15.50;64.80
37285;DHT22;23172;53.550;9.964;2023-04-24T14:47:37;15.10;70.80
37285;DHT22;23172;53.550;9.964;2023-04-24T14:52:40;14.80;75.70
37285;DHT22;23172;53.550;9.964;2023-04-24T14:57:42;14.50;79.70
37285;DHT22;23172;53.550;9.964;2023-04-24T15:02:45;14.30;83.40
37285;DHT22;23172;53.550;9.964;2023-04-24T15:07:47;14.20;87.50
37285;DHT22;23172;53.550;9.964;2023-04-24T15:12:49;14.10;90.00
37285;DHT22;23172;53.550;9.964;2023-04-24T15:17:52;14.00;91.00
37285;DHT22;23172;53.550;9.964;2023-04-24T15:22:54;13.90;91.10
37285;DHT22;23172;53.550;9.964;2023-04-24T15:27:58;13.60;91.40
37285;DHT22;23172;53.550;9.964;2023-04-24T15:33:02;13.40;91.80
37285;DHT22;23172;53.550;9.964;2023-04-24T15:38:04;13.50;92.00
37285;DHT22;23172;53.550;9.964;2023-04-24T15:43:06;13.60;91.90
37285;DHT22;23172;53.550;9.964;2023-04-24T15:48:09;13.60;91.60
37285;DHT22;23172;53.550;9.964;2023-04-24T15:53:11;13.60;91.60
37285;DHT22;23172;53.550;9.964;2023-04-24T15:58:13;13.50;91.40
37285;DHT22;23172;53.550;9.964;2023-04-24T16:03:16;13.40;91.20
37285;DHT22;23172;53.550;9.964;2023-04-24T16:08:18;13.30;90.90
37285;DHT22;23172;53.550;9.964;2023-04-24T16:13:21;13.30;91.20
37285;DHT22;23172;53.550;9.964;2023-04-24T16:18:25;13.30;90.90
37285;DHT22;23172;53.550;9.964;2023-04-24T16:23:27;13.30;90.70
37285;DHT22;23172;53.550;9.964;2023-04-24T16:28:29;12.90;90.70
37285;DHT22;23172;53.550;9.964;2023-04-24T16:33:32;12.80;91.00
37285;DHT22;23172;53.550;9.964;2023-04-24T16:38:34;12.70;90.80
37285;DHT22;23172;53.550;9.964;2023-04-24T16:43:36;12.70;90.70
37285;DHT22;23172;53.550;9.964;2023-04-24T16:48:39;12.60;91.00
37285;DHT22;23172;53.550;9.964;2023-04-24T16:53:41;12.60;91.00
37285;DHT22;23172;53.550;9.964;2023-04-24T16:58:43;12.50;91.10
37285;DHT22;23172;53.550;9.964;2023-04-24T17:03:46;12.30;91.20
37285;DHT22;23172;53.550;9.964;2023-04-24T17:08:48;12.30;91.40
37285;DHT22;23172;53.550;9.964;2023-04-24T17:13:50;12.20;91.60
37285;DHT22;23172;53.550;9.964;2023-04-24T17:18:53;12.10;92.10
37285;DHT22;23172;53.550;9.964;2023-04-24T17:23:55;12.00;92.60
37285;DHT22;23172;53.550;9.964;2023-04-24T17:28:58;12.00;92.70
37285;DHT22;23172;53.550;9.964;2023-04-24T17:34:01;11.80;92.70
37285;DHT22;23172;53.550;9.964;2023-04-24T17:39:03;11.70;93.30
37285;DHT22;23172;53.550;9.964;2023-04-24T17:44:05;11.60;93.70
37285;DHT22;23172;53.550;9.964;2023-04-24T17:59:13;11.70;93.80
37285;DHT22;23172;53.550;9.964;2023-04-24T18:04:17;11.70;94.00
37285;DHT22;23172;53.550;9.964;2023-04-24T18:09:19;11.70;94.10
37285;DHT22;23172;53.550;9.964;2023-04-24T18:14:21;11.50;94.50
37285;DHT22;23172;53.550;9.964;2023-04-24T18:19:24;11.50;94.40
37285;DHT22;23172;53.550;9.964;2023-04-24T19:19:59;11.50;94.50
37285;DHT22;23172;53.550;9.964;2023-04-24T19:25:01;11.20;94.70
37285;DHT22;23172;53.550;9.964;2023-04-24T19:30:04;11.20;94.80
37285;DHT22;23172;53.550;9.964;2023-04-24T20:45:48;11.20;94.80
37285;DHT22;23172;53.550;9.964;2023-04-24T23:57:35;11.10;96.10
